sensor_id;sensor_type;location;lat;lon;timestamp;pressure;altitude;pressure_sealevel;temperature;humidity
72570;BME280;60594;50.204;8.844;2023-12-07T00:00:23;100337.69;;;2.82;100.00
72570;BME280;60594;50.204;8.844;2023-12-07T00:03:09;100334.03;;;2.85;100.00
72570;BME280;60594;50.204;8.844;2023-12-07T00:05:36;100321.34;;;2.76;100.00
72570;BME280;60594;50.204;8.844;2023-12-07T00:08:04;100323.75;;;2.80;100.00
72570;BME280;60594;50.204;8.844;2023-12-07T00:10:31;100326.38;;;2.80;100.00
72570;BME280;60594;50.204;8.844;2023-12-07T00:12:58;100338.53;;;2.83;100.00
72570;BME280;60594;50.204;8.844;2023-12-07T00:15:25;100330.22;;;2.73;100.00
72570;BME280;60594;50.204;8.844;2023-12-07T00:17:51;100347.44;;;2.80;100.00
72570;BME280;60594;50.204;8.844;2023-12-07T00:20:18;100351.03;;;2.78;100.00
72570;BME280;60594;50.204;8.844;2023-12-07T00:22:44;100344.50;;;2.68;100.00
72570;BME280;60594;50.204;8.844;2023-12-07T00:25:11;100353.25;;;2.68;100.00
72570;BME280;60594;50.204;8.844;2023-12-07T00:27:38;100345.97;;;2.55;100.00
72570;BME280;60594;50.204;8.844;2023-12-07T00:30:05;100362.56;;;2.57;100.00
72570;BME280;60594;50.204;8.844;2023-12-07T00:32:34;100343.56;;;2.50;100.00
72570;BME280;60594;50.204;8.844;2023-12-07T00:35:01;100354.31;;;2.46;100.00
72570;BME280;60594;50.204;8.844;2023-12-07T00:37:27;100331.22;;;2.32;100.00
72570;BME280;60594;50.204;8.844;2023-12-07T00:39:57;100362.91;;;2.49;100.00
72570;BME280;60594;50.204;8.844;2023-12-07T00:42:23;100368.16;;;2.49;100.00
72570;BME280;60594;50.204;8.844;2023-12-07T00:44:50;100374.34;;;2.48;100.00
72570;BME280;60594;50.204;8.844;2023-12-07T00:47:16;100370.72;;;2.51;100.00
72570;BME280;60594;50.204;8.844;2023-12-07T00:49:43;100369.03;;;2.50;100.00
72570;BME280;60594;50.204;8.844;2023-12-07T00:52:10;100361.31;;;2.45;100.00
72570;BME280;60594;50.204;8.844;2023-12-07T00:54:37;100371.41;;;2.54;100.00
72570;BME280;60594;50.204;8.844;2023-12-07T00:57:04;100370.44;;;2.57;100.00
72570;BME280;60594;50.204;8.844;2023-12-07T00:59:30;100367.81;;;2.57;100.00
72570;BME280;60594;50.204;8.844;2023-12-07T01:02:04;100376.28;;;2.63;100.00
72570;BME280;60594;50.204;8.844;2023-12-07T01:04:31;100372.91;;;2.60;100.00
72570;BME280;60594;50.204;8.844;2023-12-07T01:06:58;100360.69;;;2.59;100.00
72570;BME280;60594;50.204;8.844;2023-12-07T01:09:25;100368.25;;;2.66;100.00
72570;BME280;60594;50.204;8.844;2023-12-07T01:11:52;100365.75;;;2.63;100.00
72570;BME280;60594;50.204;8.844;2023-12-07T01:14:19;100375.34;;;2.64;100.00
72570;BME280;60594;50.204;8.844;2023-12-07T01:16:45;100375.41;;;2.63;100.00
72570;BME280;60594;50.204;8.844;2023-12-07T01:19:12;100371.97;;;2.62;100.00
72570;BME280;60594;50.204;8.844;2023-12-07T01:21:41;100384.25;;;2.62;100.00
72570;BME280;60594;50.204;8.844;2023-12-07T01:24:08;100373.91;;;2.57;100.00
72570;BME280;60594;50.204;8.844;2023-12-07T01:26:35;100389.56;;;2.60;100.00
72570;BME280;60594;50.204;8.844;2023-12-07T01:29:01;100387.94;;;2.58;100.00
72570;BME280;60594;50.204;8.844;2023-12-07T01:31:31;100399.59;;;2.52;100.00
72570;BME280;60594;50.204;8.844;2023-12-07T01:33:58;100394.31;;;2.52;100.00
72570;BME280;60594;50.204;8.844;2023-12-07T01:36:24;100399.44;;;2.55;100.00
72570;BME280;60594;50.204;8.844;2023-12-07T01:38:51;100400.44;;;2.53;100.00
72570;BME280;60594;50.204;8.844;2023-12-07T01:41:19;100393.31;;;2.55;100.00
72570;BME280;60594;50.204;8.844;2023-12-07T01:43:46;100411.81;;;2.53;100.00
72570;BME280;60594;50.204;8.844;2023-12-07T01:46:13;100405.78;;;2.51;100.00
72570;BME280;60594;50.204;8.844;2023-12-07T01:48:40;100414.25;;;2.58;100.00
72570;BME280;60594;50.204;8.844;2023-12-07T01:51:07;100397.44;;;2.42;100.00
72570;BME280;60594;50.204;8.844;2023-12-07T01:53:35;100404.47;;;2.41;100.00
72570;BME280;60594;50.204;8.844;2023-12-07T01:56:02;100402.22;;;2.52;100.00
72570;BME280;60594;50.204;8.844;2023-12-07T01:58:28;100412.97;;;2.66;100.00
72570;BME280;60594;50.204;8.844;2023-12-07T02:00:56;100410.34;;;2.66;100.00
72570;BME280;60594;50.204;8.844;2023-12-07T02:03:23;100411.00;;;2.71;100.00
72570;BME280;60594;50.204;8.844;2023-12-07T02:05:50;100410.06;;;2.72;100.00
72570;BME280;60594;50.204;8.844;2023-12-07T02:08:17;100408.41;;;2.70;100.00
72570;BME280;60594;50.204;8.844;2023-12-07T02:10:44;100417.31;;;2.67;100.00
72570;BME280;60594;50.204;8.844;2023-12-07T02:13:11;100411.47;;;2.61;100.00
72570;BME280;60594;50.204;8.844;2023-12-07T02:15:38;100412.19;;;2.64;100.00
72570;BME280;60594;50.204;8.844;2023-12-07T02:18:26;100421.72;;;2.67;100.00
72570;BME280;60594;50.204;8.844;2023-12-07T02:21:01;100431.25;;;2.69;100.00
72570;BME280;60594;50.204;8.844;2023-12-07T02:23:32;100423.50;;;2.66;100.00
72570;BME280;60594;50.204;8.844;2023-12-07T02:26:02;100423.50;;;2.66;100.00
72570;BME280;60594;50.204;8.844;2023-12-07T02:28:29;100407.91;;;2.62;100.00
72570;BME280;60594;50.204;8.844;2023-12-07T02:30:58;100398.06;;;2.47;100.00
72570;BME280;60594;50.204;8.844;2023-12-07T02:33:27;100399.78;;;2.48;100.00
72570;BME280;60594;50.204;8.844;2023-12-07T02:35:54;100409.66;;;2.43;100.00
72570;BME280;60594;50.204;8.844;2023-12-07T02:38:26;100385.88;;;2.26;100.00
72570;BME280;60594;50.204;8.844;2023-12-07T02:40:54;100393.69;;;2.27;100.00
72570;BME280;60594;50.204;8.844;2023-12-07T02:43:22;100416.16;;;2.34;100.00
72570;BME280;60594;50.204;8.844;2023-12-07T02:45:49;100403.75;;;2.18;100.00
72570;BME280;60594;50.204;8.844;2023-12-07T02:48:16;100378.84;;;2.06;100.00
72570;BME280;60594;50.204;8.844;2023-12-07T02:50:44;100408.28;;;2.14;100.00
72570;BME280;60594;50.204;8.844;2023-12-07T02:53:10;100400.06;;;2.02;100.00
72570;BME280;60594;50.204;8.844;2023-12-07T02:55:37;100412.41;;;2.00;100.00
72570;BME280;60594;50.204;8.844;2023-12-07T02:58:04;100384.16;;;1.85;100.00
72570;BME280;60594;50.204;8.844;2023-12-07T03:00:31;100400.38;;;1.94;100.00
72570;BME280;60594;50.204;8.844;2023-12-07T03:02:58;100387.66;;;1.85;100.00
72570;BME280;60594;50.204;8.844;2023-12-07T03:05:25;100377.50;;;1.76;100.00
72570;BME280;60594;50.204;8.844;2023-12-07T03:07:52;100409.38;;;1.89;100.00
72570;BME280;60594;50.204;8.844;2023-12-07T03:10:19;100376.19;;;1.66;100.00
72570;BME280;60594;50.204;8.844;2023-12-07T03:12:46;100397.22;;;1.66;100.00
72570;BME280;60594;50.204;8.844;2023-12-07T03:15:16;100395.53;;;1.64;100.00
72570;BME280;60594;50.204;8.844;2023-12-07T03:17:44;100388.09;;;1.53;100.00
72570;BME280;60594;50.204;8.844;2023-12-07T03:20:12;100408.19;;;1.54;100.00
72570;BME280;60594;50.204;8.844;2023-12-07T03:22:44;100404.31;;;1.43;100.00
72570;BME280;60594;50.204;8.844;2023-12-07T03:25:12;100407.03;;;1.40;100.00
72570;BME280;60594;50.204;8.844;2023-12-07T03:27:38;100401.84;;;1.38;100.00
72570;BME280;60594;50.204;8.844;2023-12-07T03:30:06;100413.16;;;1.40;100.00
72570;BME280;60594;50.204;8.844;2023-12-07T03:32:32;100401.53;;;1.24;100.00
72570;BME280;60594;50.204;8.844;2023-12-07T03:35:00;100433.13;;;1.44;100.00
72570;BME280;60594;50.204;8.844;2023-12-07T03:37:27;100409.59;;;1.20;100.00
72570;BME280;60594;50.204;8.844;2023-12-07T03:39:54;100444.28;;;1.49;100.00
72570;BME280;60594;50.204;8.844;2023-12-07T03:42:20;100443.47;;;1.47;100.00
72570;BME280;60594;50.204;8.844;2023-12-07T03:44:47;100446.19;;;1.46;100.00
72570;BME280;60594;50.204;8.844;2023-12-07T03:47:15;100439.22;;;1.45;100.00
72570;BME280;60594;50.204;8.844;2023-12-07T03:49:44;100443.84;;;1.38;100.00
72570;BME280;60594;50.204;8.844;2023-12-07T03:52:10;100443.25;;;1.32;100.00
72570;BME280;60594;50.204;8.844;2023-12-07T03:54:36;100438.22;;;1.26;100.00
72570;BME280;60594;50.204;8.844;2023-12-07T03:57:04;100443.59;;;1.23;100.00
72570;BME280;60594;50.204;8.844;2023-12-07T03:59:31;100428.16;;;1.15;100.00
72570;BME280;60594;50.204;8.844;2023-12-07T04:01:57;100442.97;;;1.16;100.00
72570;BME280;60594;50.204;8.844;2023-12-07T04:04:24;100440.72;;;1.07;100.00
72570;BME280;60594;50.204;8.844;2023-12-07T04:06:52;100451.94;;;1.11;100.00
72570;BME280;60594;50.204;8.844;2023-12-07T04:09:19;100440.00;;;1.02;100.00
72570;BME280;60594;50.204;8.844;2023-12-07T04:11:47;100431.38;;;1.00;100.00
72570;BME280;60594;50.204;8.844;2023-12-07T04:14:13;100439.97;;;1.04;100.00
72570;BME280;60594;50.204;8.844;2023-12-07T04:16:41;100446.97;;;1.03;100.00
72570;BME280;60594;50.204;8.844;2023-12-07T04:19:08;100449.84;;;0.97;100.00
72570;BME280;60594;50.204;8.844;2023-12-07T04:21:34;100459.41;;;0.98;100.00
72570;BME280;60594;50.204;8.844;2023-12-07T04:24:01;100447.44;;;0.91;100.00
72570;BME280;60594;50.204;8.844;2023-12-07T04:26:27;100450.97;;;0.90;100.00
72570;BME280;60594;50.204;8.844;2023-12-07T04:28:54;100457.00;;;0.92;100.00
72570;BME280;60594;50.204;8.844;2023-12-07T04:31:21;100440.69;;;0.84;100.00
72570;BME280;60594;50.204;8.844;2023-12-07T04:33:47;100464.81;;;0.94;100.00
72570;BME280;60594;50.204;8.844;2023-12-07T04:36:14;100461.41;;;0.92;100.00
72570;BME280;60594;50.204;8.844;2023-12-07T04:38:40;100457.09;;;0.91;100.00
72570;BME280;60594;50.204;8.844;2023-12-07T04:41:07;100458.78;;;0.92;100.00
72570;BME280;60594;50.204;8.844;2023-12-07T04:43:33;100451.94;;;0.88;100.00
72570;BME280;60594;50.204;8.844;2023-12-07T04:46:00;100457.97;;;0.90;100.00
72570;BME280;60594;50.204;8.844;2023-12-07T04:48:27;100459.88;;;0.86;100.00
72570;BME280;60594;50.204;8.844;2023-12-07T04:50:53;100452.25;;;0.79;100.00
72570;BME280;60594;50.204;8.844;2023-12-07T04:53:20;100463.56;;;0.81;100.00
72570;BME280;60594;50.204;8.844;2023-12-07T04:55:49;100464.53;;;0.78;100.00
72570;BME280;60594;50.204;8.844;2023-12-07T04:58:16;100465.69;;;0.71;100.00
72570;BME280;60594;50.204;8.844;2023-12-07T05:00:43;100471.66;;;0.75;100.00
72570;BME280;60594;50.204;8.844;2023-12-07T05:03:09;100475.91;;;0.77;100.00
72570;BME280;60594;50.204;8.844;2023-12-07T05:05:37;100475.28;;;0.71;100.00
72570;BME280;60594;50.204;8.844;2023-12-07T05:08:04;100472.09;;;0.63;100.00
72570;BME280;60594;50.204;8.844;2023-12-07T05:10:30;100475.41;;;0.68;100.00
72570;BME280;60594;50.204;8.844;2023-12-07T05:12:57;100477.19;;;0.67;100.00
72570;BME280;60594;50.204;8.844;2023-12-07T05:15:24;100489.28;;;0.71;100.00
72570;BME280;60594;50.204;8.844;2023-12-07T05:17:51;100483.22;;;0.69;100.00
72570;BME280;60594;50.204;8.844;2023-12-07T05:20:18;100494.63;;;0.68;100.00
72570;BME280;60594;50.204;8.844;2023-12-07T05:22:48;100488.56;;;0.66;100.00
72570;BME280;60594;50.204;8.844;2023-12-07T05:25:15;100490.31;;;0.67;100.00
72570;BME280;60594;50.204;8.844;2023-12-07T05:27:42;100494.63;;;0.68;100.00
72570;BME280;60594;50.204;8.844;2023-12-07T05:30:09;100492.91;;;0.67;100.00
72570;BME280;60594;50.204;8.844;2023-12-07T05:32:36;100486.75;;;0.68;100.00
72570;BME280;60594;50.204;8.844;2023-12-07T05:35:02;100489.31;;;0.70;100.00
72570;BME280;60594;50.204;8.844;2023-12-07T05:37:31;100483.94;;;0.74;100.00
72570;BME280;60594;50.204;8.844;2023-12-07T05:39:58;100488.81;;;0.83;100.00
72570;BME280;60594;50.204;8.844;2023-12-07T05:42:24;100485.06;;;0.90;100.00
72570;BME280;60594;50.204;8.844;2023-12-07T05:44:51;100488.22;;;1.00;100.00
72570;BME280;60594;50.204;8.844;2023-12-07T05:47:18;100481.22;;;1.00;100.00
72570;BME280;60594;50.204;8.844;2023-12-07T05:49:44;100487.03;;;1.08;100.00
72570;BME280;60594;50.204;8.844;2023-12-07T05:52:14;100487.69;;;1.13;100.00
72570;BME280;60594;50.204;8.844;2023-12-07T05:54:42;100475.59;;;1.09;100.00
72570;BME280;60594;50.204;8.844;2023-12-07T05:57:13;100485.69;;;1.20;100.00
72570;BME280;60594;50.204;8.844;2023-12-07T05:59:40;100479.56;;;1.21;100.00
72570;BME280;60594;50.204;8.844;2023-12-07T06:02:08;100475.09;;;1.23;100.00
72570;BME280;60594;50.204;8.844;2023-12-07T06:04:36;100464.88;;;1.15;100.00
72570;BME280;60594;50.204;8.844;2023-12-07T06:07:04;100459.19;;;1.04;100.00
72570;BME280;60594;50.204;8.844;2023-12-07T06:09:30;100490.00;;;1.22;100.00
72570;BME280;60594;50.204;8.844;2023-12-07T06:12:01;100477.31;;;1.10;100.00
72570;BME280;60594;50.204;8.844;2023-12-07T06:14:27;100491.81;;;1.20;100.00
72570;BME280;60594;50.204;8.844;2023-12-07T06:16:54;100488.63;;;1.12;100.00
72570;BME280;60594;50.204;8.844;2023-12-07T06:19:21;100486.84;;;1.13;100.00
72570;BME280;60594;50.204;8.844;2023-12-07T06:21:48;100497.16;;;1.17;100.00
72570;BME280;60594;50.204;8.844;2023-12-07T06:24:14;100496.59;;;1.09;100.00
72570;BME280;60594;50.204;8.844;2023-12-07T06:26:41;100483.59;;;1.06;100.00
72570;BME280;60594;50.204;8.844;2023-12-07T06:29:07;100495.72;;;1.09;100.00
72570;BME280;60594;50.204;8.844;2023-12-07T06:31:34;100507.09;;;1.09;100.00
72570;BME280;60594;50.204;8.844;2023-12-07T06:34:00;100506.22;;;1.09;100.00
72570;BME280;60594;50.204;8.844;2023-12-07T06:36:27;100498.03;;;0.95;100.00
72570;BME280;60594;50.204;8.844;2023-12-07T06:38:54;100501.72;;;0.89;100.00
72570;BME280;60594;50.204;8.844;2023-12-07T06:41:24;100514.91;;;0.88;100.00
72570;BME280;60594;50.204;8.844;2023-12-07T06:43:51;100514.84;;;0.89;100.00
72570;BME280;60594;50.204;8.844;2023-12-07T06:46:18;100529.94;;;0.83;100.00
72570;BME280;60594;50.204;8.844;2023-12-07T06:48:44;100518.06;;;0.73;100.00
72570;BME280;60594;50.204;8.844;2023-12-07T06:51:11;100516.34;;;0.72;100.00
72570;BME280;60594;50.204;8.844;2023-12-07T06:53:41;100528.13;;;0.85;100.00
72570;BME280;60594;50.204;8.844;2023-12-07T06:56:09;100526.47;;;0.82;100.00
72570;BME280;60594;50.204;8.844;2023-12-07T06:58:35;100525.53;;;0.83;100.00
72570;BME280;60594;50.204;8.844;2023-12-07T07:01:03;100530.84;;;0.82;100.00
72570;BME280;60594;50.204;8.844;2023-12-07T07:03:30;100538.75;;;0.80;100.00
72570;BME280;60594;50.204;8.844;2023-12-07T07:05:57;100524.00;;;0.78;100.00
72570;BME280;60594;50.204;8.844;2023-12-07T07:08:25;100527.50;;;0.78;100.00
72570;BME280;60594;50.204;8.844;2023-12-07T07:10:55;100537.59;;;0.64;100.00
72570;BME280;60594;50.204;8.844;2023-12-07T07:13:21;100528.69;;;0.44;100.00
72570;BME280;60594;50.204;8.844;2023-12-07T07:15:48;100540.09;;;0.43;100.00
72570;BME280;60594;50.204;8.844;2023-12-07T07:18:14;100547.84;;;0.46;100.00
72570;BME280;60594;50.204;8.844;2023-12-07T07:20:41;100530.25;;;0.49;100.00
72570;BME280;60594;50.204;8.844;2023-12-07T07:23:08;100546.38;;;0.63;100.00
72570;BME280;60594;50.204;8.844;2023-12-07T07:25:35;100553.19;;;0.69;100.00
72570;BME280;60594;50.204;8.844;2023-12-07T07:28:02;100553.00;;;0.73;100.00
72570;BME280;60594;50.204;8.844;2023-12-07T07:30:32;100567.66;;;0.79;100.00
72570;BME280;60594;50.204;8.844;2023-12-07T07:32:58;100566.09;;;0.73;100.00
72570;BME280;60594;50.204;8.844;2023-12-07T07:35:25;100558.63;;;0.63;100.00
72570;BME280;60594;50.204;8.844;2023-12-07T07:37:53;100560.22;;;0.67;100.00
72570;BME280;60594;50.204;8.844;2023-12-07T07:40:21;100553.28;;;0.66;100.00
72570;BME280;60594;50.204;8.844;2023-12-07T07:42:47;100562.81;;;0.68;100.00
72570;BME280;60594;50.204;8.844;2023-12-07T07:45:14;100553.13;;;0.70;100.00
72570;BME280;60594;50.204;8.844;2023-12-07T07:47:40;100565.22;;;0.74;100.00
72570;BME280;60594;50.204;8.844;2023-12-07T07:50:08;100562.53;;;0.76;100.00
72570;BME280;60594;50.204;8.844;2023-12-07T07:52:35;100566.84;;;0.78;100.00
72570;BME280;60594;50.204;8.844;2023-12-07T07:55:03;100563.97;;;0.84;100.00
72570;BME280;60594;50.204;8.844;2023-12-07T07:57:30;100564.06;;;0.81;100.00
72570;BME280;60594;50.204;8.844;2023-12-07T07:59:57;100549.97;;;0.85;100.00
72570;BME280;60594;50.204;8.844;2023-12-07T08:02:24;100554.16;;;0.91;100.00
72570;BME280;60594;50.204;8.844;2023-12-07T08:04:50;100548.72;;;0.95;100.00
72570;BME280;60594;50.204;8.844;2023-12-07T08:07:18;100552.94;;;0.99;100.00
72570;BME280;60594;50.204;8.844;2023-12-07T08:09:45;100553.84;;;0.98;100.00
72570;BME280;60594;50.204;8.844;2023-12-07T08:12:11;100545.13;;;0.98;100.00
72570;BME280;60594;50.204;8.844;2023-12-07T08:14:38;100548.41;;;1.04;100.00
72570;BME280;60594;50.204;8.844;2023-12-07T08:17:04;100542.03;;;1.11;100.00
72570;BME280;60594;50.204;8.844;2023-12-07T08:19:31;100544.59;;;1.13;100.00
72570;BME280;60594;50.204;8.844;2023-12-07T08:21:57;100546.28;;;1.14;100.00
72570;BME280;60594;50.204;8.844;2023-12-07T08:24:24;100536.53;;;1.17;100.00
72570;BME280;60594;50.204;8.844;2023-12-07T08:26:51;100540.81;;;1.20;100.00
72570;BME280;60594;50.204;8.844;2023-12-07T08:29:18;100533.13;;;1.15;100.00
72570;BME280;60594;50.204;8.844;2023-12-07T08:31:44;100531.84;;;1.02;100.00
72570;BME280;60594;50.204;8.844;2023-12-07T08:34:13;100530.44;;;0.92;100.00
72570;BME280;60594;50.204;8.844;2023-12-07T08:36:40;100522.22;;;1.03;100.00
72570;BME280;60594;50.204;8.844;2023-12-07T08:39:06;100517.53;;;1.11;100.00
72570;BME280;60594;50.204;8.844;2023-12-07T08:41:35;100525.25;;;1.15;100.00
72570;BME280;60594;50.204;8.844;2023-12-07T08:44:05;100521.50;;;1.22;100.00
72570;BME280;60594;50.204;8.844;2023-12-07T08:46:31;100526.53;;;1.27;100.00
72570;BME280;60594;50.204;8.844;2023-12-07T08:48:58;100520.22;;;1.09;100.00
72570;BME280;60594;50.204;8.844;2023-12-07T08:51:24;100527.16;;;1.10;100.00
72570;BME280;60594;50.204;8.844;2023-12-07T08:53:51;100520.34;;;1.29;100.00
72570;BME280;60594;50.204;8.844;2023-12-07T08:56:19;100506.88;;;1.38;100.00
72570;BME280;60594;50.204;8.844;2023-12-07T08:58:45;100510.47;;;1.36;100.00
72570;BME280;60594;50.204;8.844;2023-12-07T09:01:12;100509.13;;;1.47;100.00
72570;BME280;60594;50.204;8.844;2023-12-07T09:03:39;100522.41;;;1.44;100.00
72570;BME280;60594;50.204;8.844;2023-12-07T09:06:05;100526.06;;;1.40;100.00
72570;BME280;60594;50.204;8.844;2023-12-07T09:08:33;100523.44;;;1.40;100.00
72570;BME280;60594;50.204;8.844;2023-12-07T09:10:59;100527.88;;;1.38;100.00
72570;BME280;60594;50.204;8.844;2023-12-07T09:13:26;100520.66;;;1.20;100.00
72570;BME280;60594;50.204;8.844;2023-12-07T09:15:54;100517.19;;;1.20;100.00
72570;BME280;60594;50.204;8.844;2023-12-07T09:18:21;100525.91;;;0.97;100.00
72570;BME280;60594;50.204;8.844;2023-12-07T09:20:48;100526.22;;;0.88;100.00
72570;BME280;60594;50.204;8.844;2023-12-07T09:23:16;100536.47;;;0.71;100.00
72570;BME280;60594;50.204;8.844;2023-12-07T09:25:43;100538.47;;;0.65;100.00
72570;BME280;60594;50.204;8.844;2023-12-07T09:28:09;100541.91;;;0.65;100.00
72570;BME280;60594;50.204;8.844;2023-12-07T09:30:36;100540.25;;;0.87;100.00
72570;BME280;60594;50.204;8.844;2023-12-07T09:33:02;100537.19;;;0.99;100.00
72570;BME280;60594;50.204;8.844;2023-12-07T09:35:29;100538.06;;;1.00;100.00
72570;BME280;60594;50.204;8.844;2023-12-07T09:37:56;100536.50;;;0.94;100.00
72570;BME280;60594;50.204;8.844;2023-12-07T09:40:23;100541.50;;;1.25;100.00
72570;BME280;60594;50.204;8.844;2023-12-07T09:42:51;100540.38;;;1.32;100.00
72570;BME280;60594;50.204;8.844;2023-12-07T09:45:18;100533.84;;;1.19;100.00
72570;BME280;60594;50.204;8.844;2023-12-07T09:47:50;100537.38;;;1.41;100.00
72570;BME280;60594;50.204;8.844;2023-12-07T09:50:18;100546.63;;;1.51;100.00
72570;BME280;60594;50.204;8.844;2023-12-07T09:52:47;100546.81;;;1.46;100.00
72570;BME280;60594;50.204;8.844;2023-12-07T09:55:16;100548.19;;;1.33;100.00
72570;BME280;60594;50.204;8.844;2023-12-07T09:57:43;100544.28;;;1.20;100.00
72570;BME280;60594;50.204;8.844;2023-12-07T10:00:13;100539.84;;;1.22;100.00
72570;BME280;60594;50.204;8.844;2023-12-07T10:02:45;100542.84;;;1.12;100.00
72570;BME280;60594;50.204;8.844;2023-12-07T10:05:14;100545.16;;;1.21;100.00
72570;BME280;60594;50.204;8.844;2023-12-07T10:07:46;100546.91;;;1.20;100.00
72570;BME280;60594;50.204;8.844;2023-12-07T10:10:17;100543.34;;;1.46;100.00
72570;BME280;60594;50.204;8.844;2023-12-07T10:12:51;100544.28;;;1.20;100.00
72570;BME280;60594;50.204;8.844;2023-12-07T10:15:19;100536.00;;;1.08;100.00
72570;BME280;60594;50.204;8.844;2023-12-07T10:17:51;100545.06;;;0.99;100.00
72570;BME280;60594;50.204;8.844;2023-12-07T10:20:19;100535.59;;;0.95;100.00
72570;BME280;60594;50.204;8.844;2023-12-07T10:23:03;100525.28;;;0.91;100.00
72570;BME280;60594;50.204;8.844;2023-12-07T10:25:33;100511.88;;;0.98;100.00
72570;BME280;60594;50.204;8.844;2023-12-07T10:28:01;100516.50;;;1.15;100.00
72570;BME280;60594;50.204;8.844;2023-12-07T10:30:33;100523.09;;;1.26;100.00
72570;BME280;60594;50.204;8.844;2023-12-07T10:33:05;100501.19;;;1.49;100.00
72570;BME280;60594;50.204;8.844;2023-12-07T10:35:38;100486.41;;;1.68;100.00
72570;BME280;60594;50.204;8.844;2023-12-07T10:38:06;100484.53;;;1.93;100.00
72570;BME280;60594;50.204;8.844;2023-12-07T10:40:33;100485.16;;;1.99;100.00
72570;BME280;60594;50.204;8.844;2023-12-07T10:43:04;100479.16;;;1.96;100.00
72570;BME280;60594;50.204;8.844;2023-12-07T10:45:31;100476.75;;;2.11;100.00
72570;BME280;60594;50.204;8.844;2023-12-07T10:48:05;100474.84;;;2.15;100.00
72570;BME280;60594;50.204;8.844;2023-12-07T10:50:38;100473.53;;;2.25;100.00
72570;BME280;60594;50.204;8.844;2023-12-07T10:53:27;100477.22;;;2.21;100.00
72570;BME280;60594;50.204;8.844;2023-12-07T10:55:59;100473.25;;;1.91;100.00
72570;BME280;60594;50.204;8.844;2023-12-07T10:58:27;100472.19;;;1.52;100.00
72570;BME280;60594;50.204;8.844;2023-12-07T11:00:54;100464.84;;;1.38;100.00
72570;BME280;60594;50.204;8.844;2023-12-07T11:03:21;100468.34;;;1.60;100.00
72570;BME280;60594;50.204;8.844;2023-12-07T11:05:48;100461.41;;;1.36;100.00
72570;BME280;60594;50.204;8.844;2023-12-07T11:08:38;100464.38;;;1.50;100.00
72570;BME280;60594;50.204;8.844;2023-12-07T11:11:24;100462.44;;;1.77;100.00
72570;BME280;60594;50.204;8.844;2023-12-07T11:14:03;100463.47;;;1.73;100.00
72570;BME280;60594;50.204;8.844;2023-12-07T11:16:34;100461.16;;;1.87;100.00
72570;BME280;60594;50.204;8.844;2023-12-07T11:19:03;100454.50;;;1.98;100.00
72570;BME280;60594;50.204;8.844;2023-12-07T11:21:31;100445.75;;;1.78;100.00
72570;BME280;60594;50.204;8.844;2023-12-07T11:24:01;100442.13;;;1.80;100.00
72570;BME280;60594;50.204;8.844;2023-12-07T11:26:30;100432.97;;;1.90;100.00
72570;BME280;60594;50.204;8.844;2023-12-07T11:28:57;100440.47;;;1.99;100.00
72570;BME280;60594;50.204;8.844;2023-12-07T11:31:23;100427.81;;;2.09;100.00
72570;BME280;60594;50.204;8.844;2023-12-07T11:33:50;100434.41;;;2.17;100.00
72570;BME280;60594;50.204;8.844;2023-12-07T11:36:16;100431.66;;;2.20;100.00
72570;BME280;60594;50.204;8.844;2023-12-07T11:39:15;100419.09;;;2.27;100.00
72570;BME280;60594;50.204;8.844;2023-12-07T11:41:45;100418.53;;;2.00;100.00
72570;BME280;60594;50.204;8.844;2023-12-07T11:44:12;100421.94;;;2.02;100.00
72570;BME280;60594;50.204;8.844;2023-12-07T11:46:38;100409.66;;;2.03;100.00
72570;BME280;60594;50.204;8.844;2023-12-07T11:49:05;100409.25;;;1.92;100.00
72570;BME280;60594;50.204;8.844;2023-12-07T11:51:36;100398.63;;;1.73;100.00
72570;BME280;60594;50.204;8.844;2023-12-07T11:54:03;100398.34;;;2.01;100.00
72570;BME280;60594;50.204;8.844;2023-12-07T11:56:29;100384.88;;;2.08;100.00
72570;BME280;60594;50.204;8.844;2023-12-07T11:58:56;100384.09;;;2.26;100.00
72570;BME280;60594;50.204;8.844;2023-12-07T12:01:26;100380.28;;;2.33;100.00
72570;BME280;60594;50.204;8.844;2023-12-07T12:03:53;100376.91;;;2.30;100.00
72570;BME280;60594;50.204;8.844;2023-12-07T12:06:20;100386.81;;;2.43;100.00
72570;BME280;60594;50.204;8.844;2023-12-07T12:08:46;100373.69;;;2.43;100.00
72570;BME280;60594;50.204;8.844;2023-12-07T12:11:14;100368.22;;;2.48;100.00
72570;BME280;60594;50.204;8.844;2023-12-07T12:13:41;100359.19;;;2.53;100.00
72570;BME280;60594;50.204;8.844;2023-12-07T12:16:07;100358.25;;;2.36;100.00
72570;BME280;60594;50.204;8.844;2023-12-07T12:18:36;100355.88;;;2.50;100.00
72570;BME280;60594;50.204;8.844;2023-12-07T12:21:03;100349.53;;;2.54;100.00
72570;BME280;60594;50.204;8.844;2023-12-07T12:23:30;100337.88;;;2.59;100.00
72570;BME280;60594;50.204;8.844;2023-12-07T12:25:57;100345.16;;;2.73;100.00
72570;BME280;60594;50.204;8.844;2023-12-07T12:28:24;100334.50;;;2.76;100.00
72570;BME280;60594;50.204;8.844;2023-12-07T12:30:51;100337.13;;;2.76;100.00
72570;BME280;60594;50.204;8.844;2023-12-07T12:33:18;100333.47;;;2.78;100.00
72570;BME280;60594;50.204;8.844;2023-12-07T12:35:45;100327.34;;;2.78;100.00
72570;BME280;60594;50.204;8.844;2023-12-07T12:38:12;100322.81;;;2.81;100.00
72570;BME280;60594;50.204;8.844;2023-12-07T12:40:39;100326.88;;;2.88;100.00
72570;BME280;60594;50.204;8.844;2023-12-07T12:43:07;100323.09;;;2.94;100.00
72570;BME280;60594;50.204;8.844;2023-12-07T12:45:34;100324.00;;;2.93;100.00
72570;BME280;60594;50.204;8.844;2023-12-07T12:48:01;100325.66;;;2.95;100.00
72570;BME280;60594;50.204;8.844;2023-12-07T12:50:38;100331.00;;;2.94;100.00
72570;BME280;60594;50.204;8.844;2023-12-07T12:53:08;100326.63;;;2.93;100.00